Kossau — V2CV9 — position and weather

sailwx.info

Track history (hours):
 
Tides and Currents Weather Stations Pressure Air Temp Water Temp Dewpoint Dewpoint Depression Visibility Wind Speed Wind Dir Waves Ship Positions

Kossau

Last reported at 2017-Oct-20 04:28 UTC. Time now 2017-Oct-20 07:26 UTC.
Position N 38°21' W 009°59'.

Length 88 m; draft 4.9 m.

Type: Cargo ship. MMSI: 305122000.

Date/timePositionNaut miles runAvg speedWind from/ knotsBaromVisibWave heightAir tempDewpointWater temp
2017-Oct-20 04:28N 38°21' W 009°59'5 8.9
2017-Oct-20 03:56N 38°25' W 010°00'4 9.1
2017-Oct-20 03:28N 38°29' W 010°02'5 9.1
2017-Oct-20 02:53N 38°35' W 010°03'6 9.2
2017-Oct-20 02:13N 38°40' W 010°06'3 9.3
2017-Oct-20 01:51N 38°44' W 010°07'4 9.2
2017-Oct-20 01:25N 38°48' W 010°07'6 9.0
2017-Oct-20 00:45N 38°54' W 010°07'3 9.1
2017-Oct-20 00:29N 38°56' W 010°07'4 8.4
2017-Oct-20 00:00N 39°00' W 010°07'4 8.4
2017-Oct-19 23:30N 39°04' W 010°07'5 8.9
2017-Oct-19 23:00N 39°09' W 010°07'  
2017-Oct-17 04:22N 47°59' W 006°34'104 5.1
2017-Oct-16 07:59N 49°18' W 004°51'4 6.9
2017-Oct-16 07:28N 49°19' W 004°46'4 7.4
2017-Oct-16 06:56N 49°21' W 004°41'12 7.7
2017-Oct-16 05:23N 49°27' W 004°25'3 7.7
2017-Oct-16 05:00N 49°29' W 004°21'4 7.8
2017-Oct-16 04:31N 49°31' W 004°16'4 7.7
2017-Oct-16 04:00N 49°32' W 004°11'4 7.8
2017-Oct-16 03:30N 49°34' W 004°05'4 7.8
2017-Oct-16 03:00N 49°36' W 004°00'4 7.6
2017-Oct-16 02:25N 49°39' W 003°54'3 7.6
2017-Oct-16 02:00N 49°40' W 003°50'4 8.0
2017-Oct-16 01:30N 49°42' W 003°45'5 8.3
2017-Oct-16 00:57N 49°45' W 003°39'4 8.6
2017-Oct-16 00:30N 49°47' W 003°33'5 9.4
2017-Oct-16 00:00N 49°49' W 003°27'5 9.8
2017-Oct-15 23:30N 49°51' W 003°21'510.1
2017-Oct-15 23:00N 49°54' W 003°14'510.3
2017-Oct-15 22:29N 49°57' W 003°07'510.3
2017-Oct-15 22:00N 49°60' W 003°01'610.3
2017-Oct-15 21:28N 50°02' W 002°53'99 8.8
2017-Oct-15 10:11N 50°28' W 000°23'210.6
2017-Oct-15 10:01N 50°29' W 000°20'510.4
2017-Oct-15 09:31N 50°30' W 000°12'510.1
2017-Oct-15 09:00N 50°31' W 000°04'5 9.8
2017-Oct-15 08:30N 50°33' E 000°03'5 9.6
2017-Oct-15 08:00N 50°34' E 000°11'5 9.5
2017-Oct-15 07:30N 50°35' E 000°18'5 9.3
2017-Oct-15 07:00N 50°36' E 000°25'4 9.1
2017-Oct-15 06:31N 50°38' E 000°32'510.0
2017-Oct-15 06:00N 50°40' E 000°39'510.5
2017-Oct-15 05:31N 50°43' E 000°45'5 9.8
2017-Oct-15 05:00N 50°46' E 000°51'5 9.5
2017-Oct-15 04:30N 50°49' E 000°57'610.1
2017-Oct-15 03:52N 50°53' E 001°06'410.6
2017-Oct-15 03:29N 50°55' E 001°10'511.2
2017-Oct-15 03:01N 50°59' E 001°17'611.8
2017-Oct-15 02:30N 51°03' E 001°24'612.0
2017-Oct-15 02:00N 51°07' E 001°31'611.4
2017-Oct-15 01:30N 51°11' E 001°36'510.7
2017-Oct-15 01:01N 51°17' E 001°36'510.3
2017-Oct-15 00:31N 51°21' E 001°34'510.3
2017-Oct-15 00:01N 51°26' E 001°29'610.6
2017-Oct-14 23:29N 51°28' E 001°21'612.6
2017-Oct-14 23:00N 51°29' E 001°12'612.1
2017-Oct-14 22:30N 51°29' E 001°02'19 0.4
2017-Oct-13 02:44N 51°24' E 000°33'0 0.0
2017-Oct-13 02:17N 51°24' E 000°33'0 0.0
2017-Oct-12 22:05N 51°24' E 000°33'0 0.0
2017-Oct-12 21:56N 51°24' E 000°33'  
Track history (hours):
 
Tides and Currents Weather Stations Pressure Air Temp Water Temp Dewpoint Dewpoint Depression Visibility Wind Speed Wind Dir Waves Ship Positions

Kossau

Last reported at 2017-Oct-20 04:28 UTC. Time now 2017-Oct-20 07:26 UTC.
Position N 38°21' W 009°59'.

Length 88 m; draft 4.9 m.

Type: Cargo ship. MMSI: 305122000.

Date/timePositionNaut miles runAvg speedWind from/ knotsBaromVisibWave heightAir tempDewpointWater temp
2017-Oct-20 04:28N 38°21' W 009°59'5 8.9
2017-Oct-20 03:56N 38°25' W 010°00'4 9.1
2017-Oct-20 03:28N 38°29' W 010°02'5 9.1
2017-Oct-20 02:53N 38°35' W 010°03'6 9.2
2017-Oct-20 02:13N 38°40' W 010°06'3 9.3
2017-Oct-20 01:51N 38°44' W 010°07'4 9.2
2017-Oct-20 01:25N 38°48' W 010°07'6 9.0
2017-Oct-20 00:45N 38°54' W 010°07'3 9.1
2017-Oct-20 00:29N 38°56' W 010°07'4 8.4
2017-Oct-20 00:00N 39°00' W 010°07'4 8.4
2017-Oct-19 23:30N 39°04' W 010°07'5 8.9
2017-Oct-19 23:00N 39°09' W 010°07'  
2017-Oct-17 04:22N 47°59' W 006°34'104 5.1
2017-Oct-16 07:59N 49°18' W 004°51'4 6.9
2017-Oct-16 07:28N 49°19' W 004°46'4 7.4
2017-Oct-16 06:56N 49°21' W 004°41'12 7.7
2017-Oct-16 05:23N 49°27' W 004°25'3 7.7
2017-Oct-16 05:00N 49°29' W 004°21'4 7.8
2017-Oct-16 04:31N 49°31' W 004°16'4 7.7
2017-Oct-16 04:00N 49°32' W 004°11'4 7.8
2017-Oct-16 03:30N 49°34' W 004°05'4 7.8
2017-Oct-16 03:00N 49°36' W 004°00'4 7.6
2017-Oct-16 02:25N 49°39' W 003°54'3 7.6
2017-Oct-16 02:00N 49°40' W 003°50'4 8.0
2017-Oct-16 01:30N 49°42' W 003°45'5 8.3
2017-Oct-16 00:57N 49°45' W 003°39'4 8.6
2017-Oct-16 00:30N 49°47' W 003°33'5 9.4
2017-Oct-16 00:00N 49°49' W 003°27'5 9.8
2017-Oct-15 23:30N 49°51' W 003°21'510.1
2017-Oct-15 23:00N 49°54' W 003°14'510.3
2017-Oct-15 22:29N 49°57' W 003°07'510.3
2017-Oct-15 22:00N 49°60' W 003°01'610.3
2017-Oct-15 21:28N 50°02' W 002°53'99 8.8
2017-Oct-15 10:11N 50°28' W 000°23'210.6
2017-Oct-15 10:01N 50°29' W 000°20'510.4
2017-Oct-15 09:31N 50°30' W 000°12'510.1
2017-Oct-15 09:00N 50°31' W 000°04'5 9.8
2017-Oct-15 08:30N 50°33' E 000°03'5 9.6
2017-Oct-15 08:00N 50°34' E 000°11'5 9.5
2017-Oct-15 07:30N 50°35' E 000°18'5 9.3
2017-Oct-15 07:00N 50°36' E 000°25'4 9.1
2017-Oct-15 06:31N 50°38' E 000°32'510.0
2017-Oct-15 06:00N 50°40' E 000°39'510.5
2017-Oct-15 05:31N 50°43' E 000°45'5 9.8
2017-Oct-15 05:00N 50°46' E 000°51'5 9.5
2017-Oct-15 04:30N 50°49' E 000°57'610.1
2017-Oct-15 03:52N 50°53' E 001°06'410.6
2017-Oct-15 03:29N 50°55' E 001°10'511.2
2017-Oct-15 03:01N 50°59' E 001°17'611.8
2017-Oct-15 02:30N 51°03' E 001°24'612.0
2017-Oct-15 02:00N 51°07' E 001°31'611.4
2017-Oct-15 01:30N 51°11' E 001°36'510.7
2017-Oct-15 01:01N 51°17' E 001°36'510.3
2017-Oct-15 00:31N 51°21' E 001°34'510.3
2017-Oct-15 00:01N 51°26' E 001°29'610.6
2017-Oct-14 23:29N 51°28' E 001°21'612.6
2017-Oct-14 23:00N 51°29' E 001°12'612.1
2017-Oct-14 22:30N 51°29' E 001°02'19 0.4
2017-Oct-13 02:44N 51°24' E 000°33'0 0.0
2017-Oct-13 02:17N 51°24' E 000°33'0 0.0
2017-Oct-12 22:05N 51°24' E 000°33'0 0.0
2017-Oct-12 21:56N 51°24' E 000°33'  

Dump ship's entire track history